Time;durP1;ratioP1;P1;durP2;ratioP2;P2;SDS_P1;SDS_P2;PMS_P1;PMS_P2;Temp;Humidity;BMP_temperature;BMP_pressure;BME280_temperature;BME280_humidity;BME280_pressure;Samples;Min_cycle;Max_cycle;Signal;HPM_P1;HPM_P2
2022/05/03 00:01:25;;;;;;;;;;;;;;;;;;6208347;23;20229;-53
2022/05/03 00:03:51;;;;;;;;;;;;;;;;;;6208106;23;19910;-53
2022/05/03 00:06:17;;;;;;;;;;;;;;;;;;6207692;23;20326;-54
2022/05/03 00:08:44;;;;;;;;;;;;;;;;;;6207647;23;19900;-53
2022/05/03 00:11:10;;;;;;;;;;;;;;;;;;6206750;23;20234;-53
2022/05/03 00:13:36;;;;;;;;;;;;;;;;;;6207379;23;20333;-54
2022/05/03 00:16:02;;;;;;;;;;;;;;;;;;6207635;23;19954;-51
2022/05/03 00:18:28;;;;;;;;;;;;;;;;;;6208115;23;19954;-53
2022/05/03 00:20:54;;;;;;;;;;;;;;;;;;6206990;23;19899;-52
2022/05/03 00:23:22;;;;;;;;;;;;;;;;;;6207527;23;19900;-53
2022/05/03 00:25:47;;;;;;;;;;;;;;;;;;6207649;23;19950;-54
2022/05/03 00:28:14;;;;;;;;;;;;;;;;;;6207465;23;20428;-54
2022/05/03 00:30:40;;;;;;;;;;;;;;;;;;6207160;23;19907;-54
2022/05/03 00:33:06;;;;;;;;;;;;;;;;;;6207672;23;20486;-54
2022/05/03 00:35:32;;;;;;;;;;;;;;;;;;6208436;23;20233;-53
2022/05/03 00:37:58;;;;;;;;;;;;;;;;;;6208400;23;19906;-53
2022/05/03 00:40:23;;;;;;;;;;;;;;;;;;6207307;23;20667;-54
2022/05/03 00:42:49;;;;;;;;;;;;;;;;;;6206585;23;19935;-53
2022/05/03 00:45:15;;;;;;;;;;;;;;;;;;6207175;23;19900;-53
2022/05/03 00:47:41;;;;;;;;;;;;;;;;;;6207820;23;20404;-52
2022/05/03 00:50:07;;;;;;;;;;;;;;;;;;6207415;23;19981;-53
2022/05/03 00:52:33;;;;;;;;;;;;;;;;;;6208128;23;19900;-54
2022/05/03 00:54:59;;;;;;;;;;;;;;;;;;6207653;23;19943;-53
2022/05/03 00:57:25;;;;;;;;;;;;;;;;;;6208546;23;19900;-52
2022/05/03 00:59:51;;;;;;;;;;;;;;;;;;6207895;23;19935;-53
2022/05/03 01:02:17;;;;;;;;;;;;;;;;;;6206804;23;19978;-54
2022/05/03 01:04:43;;;;;;;;;;;;;;;;;;6205951;23;19899;-50
2022/05/03 01:07:09;;;;;;;;;;;;;;;;;;6207528;23;19931;-53
2022/05/03 01:09:35;;;;;;;;;;;;;;;;;;6207130;23;19942;-53
2022/05/03 01:12:01;;;;;;;;;;;;;;;;;;6207403;23;19908;-54
2022/05/03 01:14:27;;;;;;;;;;;;;;;;;;6207143;23;19970;-54
2022/05/03 01:16:53;;;;;;;;;;;;;;;;;;6206901;23;19922;-53
2022/05/03 01:19:20;;;;;;;;;;;;;;;;;;6207251;23;19900;-53
2022/05/03 01:21:46;;;;;;;;;;;;;;;;;;6207445;23;19915;-52
2022/05/03 01:24:12;;;;;;;;;;;;;;;;;;6206615;23;19931;-53
2022/05/03 01:26:38;;;;;;;;;;;;;;;;;;6206507;23;20213;-53
2022/05/03 01:29:04;;;;;;;;;;;;;;;;;;6206814;23;19907;-54
2022/05/03 01:31:30;;;;;;;;;;;;;;;;;;6206663;23;19900;-52
2022/05/03 01:33:56;;;;;;;;;;;;;;;;;;6207004;23;20488;-53
2022/05/03 01:36:22;;;;;;;;;;;;;;;;;;6206657;23;19983;-53
2022/05/03 01:38:48;;;;;;;;;;;;;;;;;;6206765;23;20291;-54
2022/05/03 01:41:14;;;;;;;;;;;;;;;;;;6205998;23;20353;-52
2022/05/03 01:43:40;;;;;;;;;;;;;;;;;;6206904;23;19947;-53
2022/05/03 01:46:06;;;;;;;;;;;;;;;;;;6206363;23;19962;-54
2022/05/03 01:51:27;;;;;;;;;;;;;;;;;;6124768;23;19981;-53
2022/05/03 01:53:54;;;;;;;;;;;;;;;;;;6206306;23;20502;-53
2022/05/03 01:56:20;;;;;;;;;;;;;;;;;;6205615;23;19936;-53
2022/05/03 01:58:47;;;;;;;;;;;;;;;;;;6206024;23;19915;-53
2022/05/03 02:01:13;;;;;;;;;;;;;;;;;;6204779;23;19950;-52
2022/05/03 02:03:39;;;;;;;;;;;;;;;;;;6205732;23;20018;-53
2022/05/03 02:06:05;;;;;;;;;;;;;;;;;;6205503;23;19900;-53
2022/05/03 02:08:32;;;;;;;;;;;;;;;;;;6206458;23;19930;-53
2022/05/03 02:10:58;;;;;;;;;;;;;;;;;;6205817;23;19934;-54
2022/05/03 02:13:24;;;;;;;;;;;;;;;;;;6207590;23;19904;-53
2022/05/03 02:15:50;;;;;;;;;;;;;;;;;;6206777;23;19907;-53
2022/05/03 02:18:17;;;;;;;;;;;;;;;;;;6206917;23;19907;-53
2022/05/03 02:20:43;;;;;;;;;;;;;;;;;;6207253;23;19900;-53
2022/05/03 02:23:10;;;;;;;;;;;;;;;;;;6206992;23;19907;-50
2022/05/03 02:25:36;;;;;;;;;;;;;;;;;;6207057;23;20337;-52
2022/05/03 02:28:03;;;;;;;;;;;;;;;;;;6207808;23;19983;-54
2022/05/03 02:30:31;;;;;;;;;;;;;;;;;;6206764;23;20336;-51
2022/05/03 02:32:57;;;;;;;;;;;;;;;;;;6206970;23;20328;-54
2022/05/03 02:35:23;;;;;;;;;;;;;;;;;;6207265;23;19904;-51
2022/05/03 02:37:49;;;;;;;;;;;;;;;;;;6207306;23;19935;-54
2022/05/03 02:40:15;;;;;;;;;;;;;;;;;;6206197;23;19899;-54
2022/05/03 02:42:41;;;;;;;;;;;;;;;;;;6207004;23;19900;-53
2022/05/03 02:45:07;;;;;;;;;;;;;;;;;;6206354;23;19985;-54
2022/05/03 02:47:33;;;;;;;;;;;;;;;;;;6207478;23;19900;-53
2022/05/03 02:49:59;;;;;;;;;;;;;;;;;;6206890;23;19999;-51
2022/05/03 02:52:25;;;;;;;;;;;;;;;;;;6206935;23;19900;-53
2022/05/03 02:54:51;;;;;;;;;;;;;;;;;;6207316;23;19910;-51
2022/05/03 02:57:18;;;;;;;;;;;;;;;;;;6206737;23;20385;-54
2022/05/03 03:02:29;;;;;;;;;;;;;;;;;;6204934;23;19950;-54
2022/05/03 03:04:55;;;;;;;;;;;;;;;;;;6206853;23;19900;-51
2022/05/03 03:07:21;;;;;;;;;;;;;;;;;;6204942;23;19914;-52
2022/05/03 03:09:48;;;;;;;;;;;;;;;;;;6207209;23;20337;-54
2022/05/03 03:12:14;;;;;;;;;;;;;;;;;;6207477;23;19903;-53
2022/05/03 03:14:40;;;;;;;;;;;;;;;;;;6206488;23;19910;-53
2022/05/03 03:17:07;;;;;;;;;;;;;;;;;;6205917;23;19899;-53
2022/05/03 03:19:34;;;;;;;;;;;;;;;;;;6207143;23;19927;-54
2022/05/03 03:22:00;;;;;;;;;;;;;;;;;;6205559;23;20226;-54
2022/05/03 03:24:25;;;;;;;;;;;;;;;;;;6206620;23;19907;-54
2022/05/03 03:26:51;;;;;;;;;;;;;;;;;;6206762;23;20007;-54
2022/05/03 03:29:17;;;;;;;;;;;;;;;;;;6206563;23;19910;-53
2022/05/03 03:31:43;;;;;;;;;;;;;;;;;;6207455;23;19904;-54
2022/05/03 03:34:10;;;;;;;;;;;;;;;;;;6206171;23;19904;-54
2022/05/03 03:36:36;;;;;;;;;;;;;;;;;;6206207;23;20236;-52
2022/05/03 03:39:02;;;;;;;;;;;;;;;;;;6206614;23;19900;-55
2022/05/03 03:41:29;;;;;;;;;;;;;;;;;;6206652;23;20265;-53
2022/05/03 03:43:55;;;;;;;;;;;;;;;;;;6205658;23;19928;-52
2022/05/03 03:46:21;;;;;;;;;;;;;;;;;;6206502;23;19907;-52
2022/05/03 03:48:46;;;;;;;;;;;;;;;;;;6207693;23;19931;-54
2022/05/03 03:51:13;;;;;;;;;;;;;;;;;;6207241;23;20377;-52
2022/05/03 03:53:39;;;;;;;;;;;;;;;;;;6206138;23;20260;-51
2022/05/03 03:56:05;;;;;;;;;;;;;;;;;;6205290;23;19906;-54
2022/05/03 03:58:31;;;;;;;;;;;;;;;;;;6206114;23;19914;-54
2022/05/03 04:00:57;;;;;;;;;;;;;;;;;;6205629;23;20296;-55
2022/05/03 04:03:23;;;;;;;;;;;;;;;;;;6206788;23;19904;-53
2022/05/03 04:05:49;;;;;;;;;;;;;;;;;;6206030;23;20253;-53
2022/05/03 04:08:14;;;;;;;;;;;;;;;;;;6206785;23;19900;-53
2022/05/03 04:10:40;;;;;;;;;;;;;;;;;;6205867;23;20293;-54
2022/05/03 04:13:07;;;;;;;;;;;;;;;;;;6206165;23;19910;-54
2022/05/03 04:15:33;;;;;;;;;;;;;;;;;;6206227;23;19904;-51
2022/05/03 04:17:59;;;;;;;;;;;;;;;;;;6205617;23;19907;-53
2022/05/03 04:20:25;;;;;;;;;;;;;;;;;;6205874;23;20326;-54
2022/05/03 04:22:51;;;;;;;;;;;;;;;;;;6206073;23;19900;-54
2022/05/03 04:25:17;;;;;;;;;;;;;;;;;;6206206;23;20357;-53
2022/05/03 04:27:42;;;;;;;;;;;;;;;;;;6207111;23;19931;-54
2022/05/03 04:30:08;;;;;;;;;;;;;;;;;;6205513;23;20308;-54
2022/05/03 04:32:34;;;;;;;;;;;;;;;;;;6207548;23;19904;-54
2022/05/03 04:35:00;;;;;;;;;;;;;;;;;;6207314;23;20357;-53
2022/05/03 04:37:26;;;;;;;;;;;;;;;;;;6207716;23;20028;-54
2022/05/03 04:39:52;;;;;;;;;;;;;;;;;;6207353;23;19907;-54
2022/05/03 04:42:18;;;;;;;;;;;;;;;;;;6207402;23;19903;-55
2022/05/03 04:44:44;;;;;;;;;;;;;;;;;;6208522;23;19903;-53
2022/05/03 04:47:10;;;;;;;;;;;;;;;;;;6207350;23;19900;-52
2022/05/03 04:49:36;;;;;;;;;;;;;;;;;;6207312;23;19908;-54
2022/05/03 04:52:02;;;;;;;;;;;;;;;;;;6207288;23;19906;-54
2022/05/03 04:54:28;;;;;;;;;;;;;;;;;;6207283;23;19988;-52
2022/05/03 04:56:54;;;;;;;;;;;;;;;;;;6207455;23;19987;-53
2022/05/03 04:59:20;;;;;;;;;;;;;;;;;;6206266;23;19938;-53
2022/05/03 05:01:46;;;;;;;;;;;;;;;;;;6208185;23;19900;-55
2022/05/03 05:04:12;;;;;;;;;;;;;;;;;;6206840;23;19899;-55
2022/05/03 05:06:38;;;;;;;;;;;;;;;;;;6207284;23;19990;-53
2022/05/03 05:09:04;;;;;;;;;;;;;;;;;;6207253;23;19910;-53
2022/05/03 05:11:29;;;;;;;;;;;;;;;;;;6207849;23;19900;-54
2022/05/03 05:13:55;;;;;;;;;;;;;;;;;;6206669;23;19990;-53
2022/05/03 05:16:21;;;;;;;;;;;;;;;;;;6206949;23;19900;-52
2022/05/03 05:18:47;;;;;;;;;;;;;;;;;;6208066;23;19904;-54
2022/05/03 05:21:13;;;;;;;;;;;;;;;;;;6207062;23;19958;-55
2022/05/03 05:23:40;;;;;;;;;;;;;;;;;;6206276;23;19991;-54
2022/05/03 05:26:06;;;;;;;;;;;;;;;;;;6205445;23;20303;-54
2022/05/03 05:28:32;;;;;;;;;;;;;;;;;;6205624;23;19900;-52
2022/05/03 05:30:58;;;;;;;;;;;;;;;;;;6204430;23;19906;-54
2022/05/03 05:33:24;;;;;;;;;;;;;;;;;;6205516;23;19939;-53
2022/05/03 05:35:50;;;;;;;;;;;;;;;;;;6205264;23;20350;-53
2022/05/03 05:38:17;;;;;;;;;;;;;;;;;;6206214;23;20380;-53
2022/05/03 05:40:43;;;;;;;;;;;;;;;;;;6205318;23;20289;-54
2022/05/03 05:43:08;;;;;;;;;;;;;;;;;;6205284;23;19904;-53
2022/05/03 05:45:34;;;;;;;;;;;;;;;;;;6207140;23;20371;-54
2022/05/03 05:48:00;;;;;;;;;;;;;;;;;;6209159;23;19900;-53
2022/05/03 05:50:27;;;;;;;;;;;;;;;;;;6209286;23;19904;-53
2022/05/03 05:55:37;;;;;;;;;;;;;;;;;;6209246;23;19914;-54
2022/05/03 05:58:04;;;;;;;;;;;;;;;;;;6209143;23;20071;-55
2022/05/03 06:00:29;;;;;;;;;;;;;;;;;;6209155;23;19903;-54
2022/05/03 06:02:55;;;;;;;;;;;;;;;;;;6208979;23;20356;-54
2022/05/03 06:05:21;;;;;;;;;;;;;;;;;;6208756;23;19900;-53
2022/05/03 06:07:47;;;;;;;;;;;;;;;;;;6210070;23;19912;-54
2022/05/03 06:10:13;;;;;;;;;;;;;;;;;;6209316;23;19925;-53
2022/05/03 06:12:39;;;;;;;;;;;;;;;;;;6182993;23;19903;-55
2022/05/03 06:15:05;;;;;;;;;;;;;;;;;;6208481;23;19935;-54
2022/05/03 06:17:31;;;;;;;;;;;;;;;;;;6209442;23;19908;-53
2022/05/03 06:19:57;;;;;;;;;;;;;;;;;;6208897;23;19904;-54
2022/05/03 06:22:23;;;;;;;;;;;;;;;;;;6208153;23;19994;-54
2022/05/03 06:24:50;;;;;;;;;;;;;;;;;;6208227;23;19958;-55
2022/05/03 06:27:16;;;;;;;;;;;;;;;;;;6209460;23;19935;-54
2022/05/03 06:29:42;;;;;;;;;;;;;;;;;;6208695;23;20343;-55
2022/05/03 06:32:08;;;;;;;;;;;;;;;;;;6208912;23;19966;-53
2022/05/03 06:34:34;;;;;;;;;;;;;;;;;;6209309;23;19986;-55
2022/05/03 06:37:00;;;;;;;;;;;;;;;;;;6208643;23;20254;-54
2022/05/03 06:39:26;;;;;;;;;;;;;;;;;;6209291;23;20260;-55
2022/05/03 06:41:53;;;;;;;;;;;;;;;;;;6208598;23;19907;-55
2022/05/03 06:44:19;;;;;;;;;;;;;;;;;;6208946;23;19904;-55
2022/05/03 06:46:45;;;;;;;;;;;;;;;;;;6209471;23;20336;-53
2022/05/03 06:49:11;;;;;;;;;;;;;;;;;;6208814;23;19900;-55
2022/05/03 06:51:38;;;;;;;;;;;;;;;;;;6208909;23;19900;-55
2022/05/03 06:54:04;;;;;;;;;;;;;;;;;;6208645;23;19904;-55
2022/05/03 06:56:35;;;;;;;;;;;;;;;;;;6208572;23;20371;-53
2022/05/03 06:59:01;;;;;;;;;;;;;;;;;;6207375;23;19907;-54
2022/05/03 07:01:27;;;;;;;;;;;;;;;;;;6208619;23;19903;-54
2022/05/03 07:03:53;;;;;;;;;;;;;;;;;;6207480;23;19929;-55
2022/05/03 07:06:21;;;;;;;;;;;;;;;;;;6209111;23;19959;-55
2022/05/03 07:08:47;;;;;;;;;;;;;;;;;;6209605;23;19900;-55
2022/05/03 07:11:14;;;;;;;;;;;;;;;;;;6207357;23;19910;-55
2022/05/03 07:13:40;;;;;;;;;;;;;;;;;;6207980;23;20575;-54
2022/05/03 07:16:06;;;;;;;;;;;;;;;;;;6205465;23;20341;-54
2022/05/03 07:24:01;;;;;;;;;;;;;;;;;;6206488;23;19926;-54
2022/05/03 07:26:27;;;;;;;;;;;;;;;;;;6206887;23;19899;-55
2022/05/03 07:28:54;;;;;;;;;;;;;;;;;;6206054;23;20051;-54
2022/05/03 07:31:20;;;;;;;;;;;;;;;;;;6206876;23;19904;-54
2022/05/03 07:33:46;;;;;;;;;;;;;;;;;;6207097;23;19914;-54
2022/05/03 07:36:12;;;;;;;;;;;;;;;;;;6206831;23;19900;-54
2022/05/03 07:38:38;;;;;;;;;;;;;;;;;;6206589;23;20238;-55
2022/05/03 07:41:04;;;;;;;;;;;;;;;;;;6206640;23;19907;-55
2022/05/03 07:43:32;;;;;;;;;;;;;;;;;;6206588;23;19903;-53
2022/05/03 07:45:57;;;;;;;;;;;;;;;;;;6206219;23;19931;-54
2022/05/03 07:48:23;;;;;;;;;;;;;;;;;;6206832;23;20249;-55
2022/05/03 07:50:49;;;;;;;;;;;;;;;;;;6207190;23;19904;-55
2022/05/03 07:53:15;;;;;;;;;;;;;;;;;;6206886;23;19954;-55
2022/05/03 07:55:42;;;;;;;;;;;;;;;;;;6206349;23;19900;-55
2022/05/03 07:58:09;;;;;;;;;;;;;;;;;;6205719;23;19904;-54
2022/05/03 08:00:34;;;;;;;;;;;;;;;;;;6206578;23;19953;-54
2022/05/03 08:03:00;;;;;;;;;;;;;;;;;;6206499;23;20333;-54
2022/05/03 08:05:26;;;;;;;;;;;;;;;;;;6206328;23;19904;-54
2022/05/03 08:07:53;;;;;;;;;;;;;;;;;;6206625;23;20087;-55
2022/05/03 08:10:19;;;;;;;;;;;;;;;;;;6207233;23;19962;-53
2022/05/03 08:12:50;;;;;;;;;;;;;;;;;;6206778;23;20341;-55
2022/05/03 08:15:16;;;;;;;;;;;;;;;;;;6206642;23;19965;-54
2022/05/03 08:17:42;;;;;;;;;;;;;;;;;;6205877;23;20292;-55
2022/05/03 08:20:08;;;;;;;;;;;;;;;;;;6206132;23;19904;-54
2022/05/03 08:22:34;;;;;;;;;;;;;;;;;;6206371;23;19942;-54
2022/05/03 08:25:01;;;;;;;;;;;;;;;;;;6205924;23;19911;-55
2022/05/03 08:27:27;;;;;;;;;;;;;;;;;;6205866;23;19907;-55
2022/05/03 08:29:53;;;;;;;;;;;;;;;;;;6205904;23;20269;-54
2022/05/03 08:32:19;;;;;;;;;;;;;;;;;;6206883;23;20453;-55
2022/05/03 08:34:45;;;;;;;;;;;;;;;;;;6206837;23;20301;-52
2022/05/03 08:42:40;;;;;;;;;;;;;;;;;;6205627;23;19981;-55
2022/05/03 08:45:06;;;;;;;;;;;;;;;;;;6205941;23;19903;-54
2022/05/03 08:47:32;;;;;;;;;;;;;;;;;;6206126;23;20333;-54
2022/05/03 08:49:58;;;;;;;;;;;;;;;;;;6205896;23;19911;-54
2022/05/03 08:52:27;;;;;;;;;;;;;;;;;;6206011;23;19923;-54
2022/05/03 08:54:53;;;;;;;;;;;;;;;;;;6205547;23;20317;-55
2022/05/03 08:57:19;;;;;;;;;;;;;;;;;;6206548;23;19903;-54
2022/05/03 08:59:47;;;;;;;;;;;;;;;;;;6206084;23;19904;-55
2022/05/03 09:02:14;;;;;;;;;;;;;;;;;;6205346;23;19905;-54
2022/05/03 09:04:40;;;;;;;;;;;;;;;;;;6206033;23;19987;-54
2022/05/03 09:07:06;;;;;;;;;;;;;;;;;;6205185;23;19915;-53
2022/05/03 09:09:32;;;;;;;;;;;;;;;;;;6205784;23;19900;-54
2022/05/03 09:11:58;;;;;;;;;;;;;;;;;;6204994;23;19927;-54
2022/05/03 09:14:23;;;;;;;;;;;;;;;;;;6205539;23;19930;-55
2022/05/03 09:16:49;;;;;;;;;;;;;;;;;;6206616;23;19900;-55
2022/05/03 09:19:15;;;;;;;;;;;;;;;;;;6205749;23;20257;-53
2022/05/03 09:24:26;;;;;;;;;;;;;;;;;;6205944;23;19914;-52
2022/05/03 09:26:52;;;;;;;;;;;;;;;;;;6205567;23;19907;-51
2022/05/03 09:29:18;;;;;;;;;;;;;;;;;;6206056;23;19908;-55
2022/05/03 09:31:46;;;;;;;;;;;;;;;;;;6205748;23;19907;-53
2022/05/03 09:34:13;;;;;;;;;;;;;;;;;;6205282;23;19977;-55
2022/05/03 09:36:38;;;;;;;;;;;;;;;;;;6205643;23;19904;-55
2022/05/03 09:39:05;;;;;;;;;;;;;;;;;;6205237;23;19910;-55
2022/05/03 09:41:31;;;;;;;;;;;;;;;;;;6205137;23;20024;-55
2022/05/03 09:43:57;;;;;;;;;;;;;;;;;;6204892;23;20222;-52
2022/05/03 09:46:23;;;;;;;;;;;;;;;;;;6205527;23;19954;-51
2022/05/03 09:48:49;;;;;;;;;;;;;;;;;;6206543;23;20262;-52
2022/05/03 09:51:15;;;;;;;;;;;;;;;;;;6205622;23;19907;-52
2022/05/03 09:53:41;;;;;;;;;;;;;;;;;;6205353;23;19908;-51
2022/05/03 09:56:07;;;;;;;;;;;;;;;;;;6205143;23;20210;-53
2022/05/03 09:58:33;;;;;;;;;;;;;;;;;;6205490;23;19904;-51
2022/05/03 10:01:00;;;;;;;;;;;;;;;;;;6204556;23;20395;-49
2022/05/03 10:03:26;;;;;;;;;;;;;;;;;;6205659;23;20363;-52
2022/05/03 10:05:51;;;;;;;;;;;;;;;;;;6205258;23;19907;-52
2022/05/03 10:08:17;;;;;;;;;;;;;;;;;;6206149;23;19981;-51
2022/05/03 10:10:44;;;;;;;;;;;;;;;;;;6205487;23;19900;-52
2022/05/03 10:13:09;;;;;;;;;;;;;;;;;;6205196;23;19900;-52
2022/05/03 10:21:06;;;;;;;;;;;;;;;;;;6204857;23;19907;-52
2022/05/03 10:23:32;;;;;;;;;;;;;;;;;;6205865;23;19931;-53
2022/05/03 10:25:59;;;;;;;;;;;;;;;;;;6205277;23;19946;-54
2022/05/03 10:28:26;;;;;;;;;;;;;;;;;;6205684;23;19904;-53
2022/05/03 10:30:52;;;;;;;;;;;;;;;;;;6206096;23;19900;-54
2022/05/03 10:33:18;;;;;;;;;;;;;;;;;;6207952;23;20391;-53
2022/05/03 10:35:44;;;;;;;;;;;;;;;;;;6207307;23;19907;-54
2022/05/03 10:38:12;;;;;;;;;;;;;;;;;;6206815;23;19927;-53
2022/05/03 10:40:39;;;;;;;;;;;;;;;;;;6207724;23;19907;-54
2022/05/03 10:43:05;;;;;;;;;;;;;;;;;;6208847;23;19981;-55
2022/05/03 10:45:31;;;;;;;;;;;;;;;;;;6209030;23;19899;-53
2022/05/03 10:47:57;;;;;;;;;;;;;;;;;;6208974;23;19908;-54
2022/05/03 10:50:23;;;;;;;;;;;;;;;;;;6209298;23;19982;-54
2022/05/03 10:52:50;;;;;;;;;;;;;;;;;;6207511;23;20264;-55
2022/05/03 10:55:15;;;;;;;;;;;;;;;;;;6207333;23;19932;-55
2022/05/03 10:57:41;;;;;;;;;;;;;;;;;;6207085;23;19927;-55
2022/05/03 11:00:09;;;;;;;;;;;;;;;;;;6206913;23;19939;-54
2022/05/03 11:02:35;;;;;;;;;;;;;;;;;;6207131;23;19900;-54
2022/05/03 11:05:03;;;;;;;;;;;;;;;;;;6206427;23;19910;-54
2022/05/03 11:07:29;;;;;;;;;;;;;;;;;;6206966;23;19930;-54
2022/05/03 11:09:56;;;;;;;;;;;;;;;;;;6206629;23;20537;-54
2022/05/03 11:12:23;;;;;;;;;;;;;;;;;;6207049;23;19974;-54
2022/05/03 11:14:49;;;;;;;;;;;;;;;;;;6207562;23;19908;-54
2022/05/03 11:17:16;;;;;;;;;;;;;;;;;;6180806;23;20273;-54
2022/05/03 11:19:42;;;;;;;;;;;;;;;;;;6208134;23;19910;-54
2022/05/03 11:22:09;;;;;;;;;;;;;;;;;;6206920;23;19899;-54
2022/05/03 11:24:36;;;;;;;;;;;;;;;;;;6207886;23;19899;-54
2022/05/03 11:27:02;;;;;;;;;;;;;;;;;;6206839;23;19942;-54
2022/05/03 11:29:28;;;;;;;;;;;;;;;;;;6206946;23;19899;-55
2022/05/03 11:31:53;;;;;;;;;;;;;;;;;;6206291;23;19900;-53
2022/05/03 11:34:19;;;;;;;;;;;;;;;;;;6208746;23;19914;-53
2022/05/03 11:36:50;;;;;;;;;;;;;;;;;;6209524;23;19900;-55
2022/05/03 11:39:16;;;;;;;;;;;;;;;;;;6208746;23;20073;-55
2022/05/03 11:41:45;;;;;;;;;;;;;;;;;;6208159;23;20237;-55
2022/05/03 11:44:10;;;;;;;;;;;;;;;;;;6207335;23;19903;-54
2022/05/03 11:46:37;;;;;;;;;;;;;;;;;;6209035;23;19955;-54
2022/05/03 11:49:03;;;;;;;;;;;;;;;;;;6208118;23;19919;-55
2022/05/03 11:56:58;;;;;;;;;;;;;;;;;;6208281;23;19907;-55
2022/05/03 11:59:25;;;;;;;;;;;;;;;;;;6208545;23;19930;-54
2022/05/03 12:01:51;;;;;;;;;;;;;;;;;;6208247;23;19900;-55
2022/05/03 12:04:16;;;;;;;;;;;;;;;;;;6208471;23;19987;-54
2022/05/03 12:06:45;;;;;;;;;;;;;;;;;;6208262;23;19990;-54
2022/05/03 12:09:11;;;;;;;;;;;;;;;;;;6208050;23;20330;-55
2022/05/03 12:14:22;;;;;;;;;;;;;;;;;;6207613;23;20313;-54
2022/05/03 12:16:48;;;;;;;;;;;;;;;;;;6208992;23;19904;-54
2022/05/03 12:19:14;;;;;;;;;;;;;;;;;;6206857;23;19903;-55
2022/05/03 12:21:40;;;;;;;;;;;;;;;;;;6207961;23;19939;-55
2022/05/03 12:24:07;;;;;;;;;;;;;;;;;;6207624;23;19916;-55
2022/05/03 12:26:33;;;;;;;;;;;;;;;;;;6207867;23;19966;-55
2022/05/03 12:28:59;;;;;;;;;;;;;;;;;;6207247;23;19904;-55
2022/05/03 12:31:25;;;;;;;;;;;;;;;;;;6207465;23;20300;-54
2022/05/03 12:33:52;;;;;;;;;;;;;;;;;;6205467;23;19908;-54
2022/05/03 12:36:19;;;;;;;;;;;;;;;;;;6207167;23;19900;-55
2022/05/03 12:38:45;;;;;;;;;;;;;;;;;;6207069;23;20329;-54
2022/05/03 12:41:11;;;;;;;;;;;;;;;;;;6205666;23;19950;-55
2022/05/03 12:43:38;;;;;;;;;;;;;;;;;;6205756;23;19903;-54
2022/05/03 12:46:04;;;;;;;;;;;;;;;;;;6205793;23;19907;-56
2022/05/03 12:48:31;;;;;;;;;;;;;;;;;;6206206;23;19903;-55
2022/05/03 12:50:57;;;;;;;;;;;;;;;;;;6205995;23;19903;-55
2022/05/03 12:53:24;;;;;;;;;;;;;;;;;;6205555;23;19931;-55
2022/05/03 12:55:50;;;;;;;;;;;;;;;;;;6206007;23;20256;-56
2022/05/03 12:58:22;;;;;;;;;;;;;;;;;;6204119;23;19908;-53
2022/05/03 13:00:48;;;;;;;;;;;;;;;;;;6206048;23;19904;-54
2022/05/03 13:03:15;;;;;;;;;;;;;;;;;;6204815;23;19903;-54
2022/05/03 13:05:40;;;;;;;;;;;;;;;;;;6205920;23;20163;-54
2022/05/03 13:08:06;;;;;;;;;;;;;;;;;;6205471;23;19912;-55
2022/05/03 13:10:33;;;;;;;;;;;;;;;;;;6205667;23;20273;-54
2022/05/03 13:12:59;;;;;;;;;;;;;;;;;;6204635;23;19930;-55
2022/05/03 13:15:25;;;;;;;;;;;;;;;;;;6205857;23;19903;-54
2022/05/03 13:17:52;;;;;;;;;;;;;;;;;;6206655;23;19911;-55
2022/05/03 13:20:20;;;;;;;;;;;;;;;;;;6205892;23;19983;-54
2022/05/03 13:22:45;;;;;;;;;;;;;;;;;;6205866;23;20305;-55
2022/05/03 13:25:11;;;;;;;;;;;;;;;;;;6205234;23;19900;-55
2022/05/03 13:27:37;;;;;;;;;;;;;;;;;;6205847;23;19930;-57
2022/05/03 13:30:03;;;;;;;;;;;;;;;;;;6205355;23;20437;-57
2022/05/03 13:32:29;;;;;;;;;;;;;;;;;;6205376;23;19987;-57
2022/05/03 13:34:56;;;;;;;;;;;;;;;;;;6205997;23;19907;-58
2022/05/03 13:42:52;;;;;;;;;;;;;;;;;;6208485;23;19953;-57
2022/05/03 13:45:18;;;;;;;;;;;;;;;;;;6207742;23;19950;-57
2022/05/03 13:47:44;;;;;;;;;;;;;;;;;;6207194;23;19907;-57
2022/05/03 13:50:10;;;;;;;;;;;;;;;;;;6207274;23;19926;-58
2022/05/03 13:52:37;;;;;;;;;;;;;;;;;;6207375;23;19904;-57
2022/05/03 13:55:03;;;;;;;;;;;;;;;;;;6206813;23;20685;-58
2022/05/03 13:57:29;;;;;;;;;;;;;;;;;;6207350;23;19900;-57
2022/05/03 13:59:55;;;;;;;;;;;;;;;;;;6207182;23;19954;-58
2022/05/03 14:02:21;;;;;;;;;;;;;;;;;;6206865;23;19907;-57
2022/05/03 14:04:47;;;;;;;;;;;;;;;;;;6206545;23;19904;-58
2022/05/03 14:07:13;;;;;;;;;;;;;;;;;;6207741;23;19918;-57
2022/05/03 14:09:39;;;;;;;;;;;;;;;;;;6209320;23;19907;-57
2022/05/03 14:12:06;;;;;;;;;;;;;;;;;;6209465;23;19963;-57
2022/05/03 14:14:32;;;;;;;;;;;;;;;;;;6208925;23;19904;-57
2022/05/03 14:16:58;;;;;;;;;;;;;;;;;;6208950;23;19943;-58
2022/05/03 14:19:24;;;;;;;;;;;;;;;;;;6210226;23;19923;-57
2022/05/03 14:21:50;;;;;;;;;;;;;;;;;;6209084;23;19904;-57
2022/05/03 14:24:16;;;;;;;;;;;;;;;;;;6208449;23;19908;-57
2022/05/03 14:26:42;;;;;;;;;;;;;;;;;;6209245;23;19925;-57
2022/05/03 14:29:08;;;;;;;;;;;;;;;;;;6208673;23;19911;-57
2022/05/03 14:31:35;;;;;;;;;;;;;;;;;;6208668;23;20086;-57
2022/05/03 14:34:01;;;;;;;;;;;;;;;;;;6207134;23;19904;-58
2022/05/03 14:36:27;;;;;;;;;;;;;;;;;;6208643;23;19928;-58
2022/05/03 14:38:53;;;;;;;;;;;;;;;;;;6209610;23;19910;-57
2022/05/03 14:41:19;;;;;;;;;;;;;;;;;;6208639;23;20276;-58
2022/05/03 14:43:46;;;;;;;;;;;;;;;;;;6208418;23;19961;-57
2022/05/03 14:46:12;;;;;;;;;;;;;;;;;;6208525;23;19904;-57
2022/05/03 14:48:38;;;;;;;;;;;;;;;;;;6208789;23;19904;-58
2022/05/03 14:51:04;;;;;;;;;;;;;;;;;;6208110;23;19903;-58
2022/05/03 14:53:30;;;;;;;;;;;;;;;;;;6208642;23;20436;-58
2022/05/03 15:04:10;;;;;;;;;;;;;;;;;;6208906;23;20582;-57
2022/05/03 15:06:40;;;;;;;;;;;;;;;;;;6209331;23;19939;-57
2022/05/03 15:09:06;;;;;;;;;;;;;;;;;;6182009;23;19915;-57
2022/05/03 15:11:32;;;;;;;;;;;;;;;;;;6208809;23;19907;-57
2022/05/03 15:13:58;;;;;;;;;;;;;;;;;;6208305;23;19999;-57
2022/05/03 15:16:24;;;;;;;;;;;;;;;;;;6208349;23;19979;-58
2022/05/03 15:18:50;;;;;;;;;;;;;;;;;;6208303;23;19927;-58
2022/05/03 15:21:16;;;;;;;;;;;;;;;;;;6208136;23;19904;-58
2022/05/03 15:26:26;;;;;;;;;;;;;;;;;;6206003;23;20265;-58
2022/05/03 15:28:53;;;;;;;;;;;;;;;;;;6206256;23;19900;-60
2022/05/03 15:31:19;;;;;;;;;;;;;;;;;;6206566;23;19927;-59
2022/05/03 15:33:45;;;;;;;;;;;;;;;;;;6206321;23;19904;-58
2022/05/03 15:36:11;;;;;;;;;;;;;;;;;;6206657;23;19903;-59
2022/05/03 15:38:37;;;;;;;;;;;;;;;;;;6206936;23;19904;-58
2022/05/03 15:41:03;;;;;;;;;;;;;;;;;;6206633;23;20155;-58
2022/05/03 15:43:30;;;;;;;;;;;;;;;;;;6206276;23;19904;-58
2022/05/03 15:46:00;;;;;;;;;;;;;;;;;;6206379;23;20341;-58
2022/05/03 15:48:26;;;;;;;;;;;;;;;;;;6206392;23;19904;-58
2022/05/03 15:50:52;;;;;;;;;;;;;;;;;;6206099;23;20088;-62
2022/05/03 15:53:19;;;;;;;;;;;;;;;;;;6206292;23;19900;-60
2022/05/03 15:55:45;;;;;;;;;;;;;;;;;;6206276;23;20396;-59
2022/05/03 15:58:11;;;;;;;;;;;;;;;;;;6206102;23;19899;-59
2022/05/03 16:00:37;;;;;;;;;;;;;;;;;;6206581;23;19907;-58
2022/05/03 16:03:04;;;;;;;;;;;;;;;;;;6204686;23;19950;-58
2022/05/03 16:05:30;;;;;;;;;;;;;;;;;;6207025;23;19954;-58
2022/05/03 16:07:56;;;;;;;;;;;;;;;;;;6206925;23;20337;-58
2022/05/03 16:10:22;;;;;;;;;;;;;;;;;;6207454;23;19909;-58
2022/05/03 16:12:48;;;;;;;;;;;;;;;;;;6207606;23;20361;-58
2022/05/03 16:15:14;;;;;;;;;;;;;;;;;;6207691;23;19903;-58
2022/05/03 16:17:40;;;;;;;;;;;;;;;;;;6207705;23;19950;-57
2022/05/03 16:20:07;;;;;;;;;;;;;;;;;;6208865;23;19914;-58
2022/05/03 16:22:33;;;;;;;;;;;;;;;;;;6209207;23;19904;-58
2022/05/03 16:24:59;;;;;;;;;;;;;;;;;;6206933;23;20380;-57
2022/05/03 16:27:25;;;;;;;;;;;;;;;;;;6205964;23;19911;-58
2022/05/03 16:29:52;;;;;;;;;;;;;;;;;;6206392;23;19935;-58
2022/05/03 16:32:17;;;;;;;;;;;;;;;;;;6207990;23;19998;-59
2022/05/03 16:34:43;;;;;;;;;;;;;;;;;;6207193;23;19904;-58
2022/05/03 16:42:39;;;;;;;;;;;;;;;;;;6207772;23;19926;-59
2022/05/03 16:45:05;;;;;;;;;;;;;;;;;;6207752;23;19922;-58
2022/05/03 16:47:31;;;;;;;;;;;;;;;;;;6208685;23;19900;-58
2022/05/03 16:49:57;;;;;;;;;;;;;;;;;;6207283;23;20337;-58
2022/05/03 16:52:23;;;;;;;;;;;;;;;;;;6208335;23;19900;-58
2022/05/03 16:54:49;;;;;;;;;;;;;;;;;;6206196;23;19904;-58
2022/05/03 16:57:15;;;;;;;;;;;;;;;;;;6208943;23;19900;-58
2022/05/03 16:59:41;;;;;;;;;;;;;;;;;;6208099;23;19914;-58
2022/05/03 17:02:07;;;;;;;;;;;;;;;;;;6207949;23;19903;-58
2022/05/03 17:04:34;;;;;;;;;;;;;;;;;;6208560;23;19950;-58
2022/05/03 17:07:00;;;;;;;;;;;;;;;;;;6208402;23;20318;-58
2022/05/03 17:09:26;;;;;;;;;;;;;;;;;;6208969;23;19990;-58
2022/05/03 17:11:52;;;;;;;;;;;;;;;;;;6208672;23;19904;-58
2022/05/03 17:14:19;;;;;;;;;;;;;;;;;;6208702;23;19908;-58
2022/05/03 17:16:45;;;;;;;;;;;;;;;;;;6208237;23;19900;-58
2022/05/03 17:19:10;;;;;;;;;;;;;;;;;;6208351;23;20918;-58
2022/05/03 17:21:36;;;;;;;;;;;;;;;;;;6207880;23;19910;-57
2022/05/03 17:24:02;;;;;;;;;;;;;;;;;;6207523;23;19986;-54
2022/05/03 17:26:28;;;;;;;;;;;;;;;;;;6208246;23;19900;-54
2022/05/03 17:28:57;;;;;;;;;;;;;;;;;;6181231;23;20246;-56
2022/05/03 17:31:23;;;;;;;;;;;;;;;;;;6208129;23;20334;-55
2022/05/03 17:33:49;;;;;;;;;;;;;;;;;;6208954;23;19904;-55
2022/05/03 17:36:15;;;;;;;;;;;;;;;;;;6207827;23;19907;-55